sensor_id;sensor_type;location;lat;lon;timestamp;temperature;humidity
2050;DHT22;8478;49.208;8.806;2023-02-15T00:01:33;8.30;99.90
2050;DHT22;8478;49.208;8.806;2023-02-15T00:03:59;8.30;99.90
2050;DHT22;8478;49.208;8.806;2023-02-15T00:06:25;8.30;99.90
2050;DHT22;8478;49.208;8.806;2023-02-15T00:08:51;8.30;99.90
2050;DHT22;8478;49.208;8.806;2023-02-15T00:11:18;8.30;99.90
2050;DHT22;8478;49.208;8.806;2023-02-15T00:14:04;8.30;99.90
2050;DHT22;8478;49.208;8.806;2023-02-15T00:16:30;8.30;99.90
2050;DHT22;8478;49.208;8.806;2023-02-15T00:18:56;8.30;99.90
2050;DHT22;8478;49.208;8.806;2023-02-15T00:21:21;8.30;99.90
2050;DHT22;8478;49.208;8.806;2023-02-15T00:23:47;8.30;99.90
2050;DHT22;8478;49.208;8.806;2023-02-15T00:26:13;8.30;99.90
2050;DHT22;8478;49.208;8.806;2023-02-15T00:28:38;8.30;99.90
2050;DHT22;8478;49.208;8.806;2023-02-15T00:31:06;8.30;99.90
2050;DHT22;8478;49.208;8.806;2023-02-15T00:33:31;8.30;99.90
2050;DHT22;8478;49.208;8.806;2023-02-15T00:35:59;8.30;99.90
2050;DHT22;8478;49.208;8.806;2023-02-15T00:38:26;8.30;99.90
2050;DHT22;8478;49.208;8.806;2023-02-15T00:40:56;8.30;99.90
2050;DHT22;8478;49.208;8.806;2023-02-15T00:43:23;8.30;99.90
2050;DHT22;8478;49.208;8.806;2023-02-15T00:45:49;8.30;99.90
2050;DHT22;8478;49.208;8.806;2023-02-15T00:48:15;8.30;99.90
2050;DHT22;8478;49.208;8.806;2023-02-15T00:50:41;8.30;99.90
2050;DHT22;8478;49.208;8.806;2023-02-15T00:53:07;8.30;99.90
2050;DHT22;8478;49.208;8.806;2023-02-15T00:55:32;8.40;99.90
2050;DHT22;8478;49.208;8.806;2023-02-15T00:57:58;8.30;99.90
2050;DHT22;8478;49.208;8.806;2023-02-15T01:00:24;8.30;99.90
2050;DHT22;8478;49.208;8.806;2023-02-15T01:02:50;8.30;99.90
2050;DHT22;8478;49.208;8.806;2023-02-15T01:05:15;8.30;99.90
2050;DHT22;8478;49.208;8.806;2023-02-15T01:07:41;8.30;99.90
2050;DHT22;8478;49.208;8.806;2023-02-15T01:10:07;8.30;99.90
2050;DHT22;8478;49.208;8.806;2023-02-15T01:12:33;8.30;99.90
2050;DHT22;8478;49.208;8.806;2023-02-15T01:14:59;8.30;99.90
2050;DHT22;8478;49.208;8.806;2023-02-15T01:17:25;8.30;99.90
2050;DHT22;8478;49.208;8.806;2023-02-15T01:19:50;8.40;99.90
2050;DHT22;8478;49.208;8.806;2023-02-15T01:22:17;8.30;99.90
2050;DHT22;8478;49.208;8.806;2023-02-15T01:24:43;8.30;99.90
2050;DHT22;8478;49.208;8.806;2023-02-15T01:27:09;8.30;99.90
2050;DHT22;8478;49.208;8.806;2023-02-15T01:29:35;8.30;99.90
2050;DHT22;8478;49.208;8.806;2023-02-15T01:32:00;8.30;99.90
2050;DHT22;8478;49.208;8.806;2023-02-15T01:34:26;8.30;99.90
2050;DHT22;8478;49.208;8.806;2023-02-15T01:36:51;8.40;99.90
2050;DHT22;8478;49.208;8.806;2023-02-15T01:39:17;8.30;99.90
2050;DHT22;8478;49.208;8.806;2023-02-15T01:41:43;8.30;99.90
2050;DHT22;8478;49.208;8.806;2023-02-15T01:47:18;8.30;99.90
2050;DHT22;8478;49.208;8.806;2023-02-15T01:49:46;8.30;99.90
2050;DHT22;8478;49.208;8.806;2023-02-15T01:52:16;8.30;99.90
2050;DHT22;8478;49.208;8.806;2023-02-15T01:54:45;8.30;99.90
2050;DHT22;8478;49.208;8.806;2023-02-15T01:57:16;8.30;99.90
2050;DHT22;8478;49.208;8.806;2023-02-15T01:59:46;8.30;99.90
2050;DHT22;8478;49.208;8.806;2023-02-15T02:02:16;8.30;99.90
2050;DHT22;8478;49.208;8.806;2023-02-15T02:04:51;8.30;99.90
2050;DHT22;8478;49.208;8.806;2023-02-15T02:07:20;8.30;99.90
2050;DHT22;8478;49.208;8.806;2023-02-15T02:09:48;8.30;99.90
2050;DHT22;8478;49.208;8.806;2023-02-15T02:12:15;8.30;99.90
2050;DHT22;8478;49.208;8.806;2023-02-15T02:14:42;8.30;99.90
2050;DHT22;8478;49.208;8.806;2023-02-15T02:20:16;8.30;99.90
2050;DHT22;8478;49.208;8.806;2023-02-15T02:31:08;8.30;99.90
2050;DHT22;8478;49.208;8.806;2023-02-15T02:36:20;8.30;99.90
2050;DHT22;8478;49.208;8.806;2023-02-15T02:39:12;8.30;99.90
2050;DHT22;8478;49.208;8.806;2023-02-15T02:44:29;8.30;99.90
2050;DHT22;8478;49.208;8.806;2023-02-15T02:47:12;8.30;99.90
2050;DHT22;8478;49.208;8.806;2023-02-15T02:49:42;8.30;99.90
2050;DHT22;8478;49.208;8.806;2023-02-15T02:52:43;8.30;99.90
2050;DHT22;8478;49.208;8.806;2023-02-15T02:55:13;8.30;99.90
2050;DHT22;8478;49.208;8.806;2023-02-15T02:57:47;8.30;99.90
2050;DHT22;8478;49.208;8.806;2023-02-15T03:00:18;8.30;99.90
2050;DHT22;8478;49.208;8.806;2023-02-15T03:02:47;8.30;99.90
2050;DHT22;8478;49.208;8.806;2023-02-15T03:05:21;8.30;99.90
2050;DHT22;8478;49.208;8.806;2023-02-15T03:07:50;8.30;99.90
2050;DHT22;8478;49.208;8.806;2023-02-15T03:10:18;8.30;99.90
2050;DHT22;8478;49.208;8.806;2023-02-15T03:12:46;8.30;99.90
2050;DHT22;8478;49.208;8.806;2023-02-15T03:15:20;8.30;99.90
2050;DHT22;8478;49.208;8.806;2023-02-15T03:17:51;8.30;99.90
2050;DHT22;8478;49.208;8.806;2023-02-15T03:20:22;8.20;99.90
2050;DHT22;8478;49.208;8.806;2023-02-15T03:22:59;8.30;99.90
2050;DHT22;8478;49.208;8.806;2023-02-15T03:25:41;8.30;99.90
2050;DHT22;8478;49.208;8.806;2023-02-15T03:28:19;8.30;99.90
2050;DHT22;8478;49.208;8.806;2023-02-15T03:30:51;8.30;99.90
2050;DHT22;8478;49.208;8.806;2023-02-15T03:33:19;8.30;99.90
2050;DHT22;8478;49.208;8.806;2023-02-15T03:35:58;8.30;99.90
2050;DHT22;8478;49.208;8.806;2023-02-15T03:38:57;8.30;99.90
2050;DHT22;8478;49.208;8.806;2023-02-15T03:41:27;8.30;99.90
2050;DHT22;8478;49.208;8.806;2023-02-15T03:44:10;8.30;99.90
2050;DHT22;8478;49.208;8.806;2023-02-15T03:46:43;8.30;99.90
2050;DHT22;8478;49.208;8.806;2023-02-15T03:49:20;8.30;99.90
2050;DHT22;8478;49.208;8.806;2023-02-15T03:51:48;8.30;99.90
2050;DHT22;8478;49.208;8.806;2023-02-15T03:54:25;8.30;99.90
2050;DHT22;8478;49.208;8.806;2023-02-15T03:57:16;8.30;99.90
2050;DHT22;8478;49.208;8.806;2023-02-15T04:00:09;8.30;99.90
2050;DHT22;8478;49.208;8.806;2023-02-15T04:05:37;8.30;99.90
2050;DHT22;8478;49.208;8.806;2023-02-15T04:08:04;8.30;99.90
2050;DHT22;8478;49.208;8.806;2023-02-15T04:10:29;8.30;99.90
2050;DHT22;8478;49.208;8.806;2023-02-15T04:13:13;8.30;99.90
2050;DHT22;8478;49.208;8.806;2023-02-15T04:15:39;8.20;99.90
2050;DHT22;8478;49.208;8.806;2023-02-15T04:18:23;8.30;99.90
2050;DHT22;8478;49.208;8.806;2023-02-15T04:21:08;8.30;99.90
2050;DHT22;8478;49.208;8.806;2023-02-15T04:23:52;8.30;99.90
2050;DHT22;8478;49.208;8.806;2023-02-15T04:26:36;8.30;99.90
2050;DHT22;8478;49.208;8.806;2023-02-15T04:29:02;8.30;99.90
2050;DHT22;8478;49.208;8.806;2023-02-15T04:31:28;8.30;99.90
2050;DHT22;8478;49.208;8.806;2023-02-15T04:33:53;8.30;99.90
2050;DHT22;8478;49.208;8.806;2023-02-15T04:36:19;8.20;99.90
2050;DHT22;8478;49.208;8.806;2023-02-15T04:38:45;8.30;99.90
2050;DHT22;8478;49.208;8.806;2023-02-15T04:41:10;8.20;99.90
2050;DHT22;8478;49.208;8.806;2023-02-15T04:43:38;8.30;99.90
2050;DHT22;8478;49.208;8.806;2023-02-15T04:46:04;8.30;99.90
2050;DHT22;8478;49.208;8.806;2023-02-15T04:48:30;8.20;99.90
2050;DHT22;8478;49.208;8.806;2023-02-15T04:50:56;8.30;99.90
2050;DHT22;8478;49.208;8.806;2023-02-15T04:53:21;8.30;99.90
2050;DHT22;8478;49.208;8.806;2023-02-15T04:55:47;8.30;99.90
2050;DHT22;8478;49.208;8.806;2023-02-15T04:58:13;8.20;99.90
2050;DHT22;8478;49.208;8.806;2023-02-15T05:00:39;8.30;99.90
2050;DHT22;8478;49.208;8.806;2023-02-15T05:03:04;8.30;99.90
2050;DHT22;8478;49.208;8.806;2023-02-15T05:05:30;8.30;99.90
2050;DHT22;8478;49.208;8.806;2023-02-15T05:07:56;8.20;99.90
2050;DHT22;8478;49.208;8.806;2023-02-15T05:10:22;8.30;99.90
2050;DHT22;8478;49.208;8.806;2023-02-15T05:12:48;8.20;99.90
2050;DHT22;8478;49.208;8.806;2023-02-15T05:15:13;8.30;99.90
2050;DHT22;8478;49.208;8.806;2023-02-15T05:17:39;8.20;99.90
2050;DHT22;8478;49.208;8.806;2023-02-15T05:20:05;8.20;99.90
2050;DHT22;8478;49.208;8.806;2023-02-15T05:22:31;8.30;99.90
2050;DHT22;8478;49.208;8.806;2023-02-15T05:24:56;8.30;99.90
2050;DHT22;8478;49.208;8.806;2023-02-15T05:27:41;8.30;99.90
2050;DHT22;8478;49.208;8.806;2023-02-15T05:30:25;8.20;99.90
2050;DHT22;8478;49.208;8.806;2023-02-15T05:32:51;8.30;99.90
2050;DHT22;8478;49.208;8.806;2023-02-15T05:35:17;8.30;99.90
2050;DHT22;8478;49.208;8.806;2023-02-15T05:37:43;8.20;99.90
2050;DHT22;8478;49.208;8.806;2023-02-15T05:40:09;8.20;99.90
2050;DHT22;8478;49.208;8.806;2023-02-15T05:42:35;8.20;99.90
2050;DHT22;8478;49.208;8.806;2023-02-15T05:45:01;8.20;99.90
2050;DHT22;8478;49.208;8.806;2023-02-15T05:47:26;8.20;99.90
2050;DHT22;8478;49.208;8.806;2023-02-15T05:49:52;8.20;99.90
2050;DHT22;8478;49.208;8.806;2023-02-15T05:52:18;8.20;99.90
2050;DHT22;8478;49.208;8.806;2023-02-15T05:54:43;8.20;99.90
2050;DHT22;8478;49.208;8.806;2023-02-15T05:57:09;8.20;99.90
2050;DHT22;8478;49.208;8.806;2023-02-15T05:59:34;8.20;99.90
2050;DHT22;8478;49.208;8.806;2023-02-15T06:02:00;8.20;99.90
2050;DHT22;8478;49.208;8.806;2023-02-15T06:04:26;8.20;99.90
2050;DHT22;8478;49.208;8.806;2023-02-15T06:06:52;8.20;99.90
2050;DHT22;8478;49.208;8.806;2023-02-15T06:09:17;8.20;99.90
2050;DHT22;8478;49.208;8.806;2023-02-15T06:11:44;8.20;99.90
2050;DHT22;8478;49.208;8.806;2023-02-15T06:14:10;8.20;99.90
2050;DHT22;8478;49.208;8.806;2023-02-15T06:16:36;8.20;99.90
2050;DHT22;8478;49.208;8.806;2023-02-15T06:19:02;8.20;99.90
2050;DHT22;8478;49.208;8.806;2023-02-15T06:21:29;8.20;99.90
2050;DHT22;8478;49.208;8.806;2023-02-15T06:23:54;8.20;99.90
2050;DHT22;8478;49.208;8.806;2023-02-15T06:26:20;8.20;99.90
2050;DHT22;8478;49.208;8.806;2023-02-15T06:28:45;8.20;99.90
2050;DHT22;8478;49.208;8.806;2023-02-15T06:31:11;8.20;99.90
2050;DHT22;8478;49.208;8.806;2023-02-15T06:33:37;8.20;99.90
2050;DHT22;8478;49.208;8.806;2023-02-15T06:36:03;8.20;99.90
2050;DHT22;8478;49.208;8.806;2023-02-15T06:38:29;8.20;99.90
2050;DHT22;8478;49.208;8.806;2023-02-15T06:40:55;8.20;99.90
2050;DHT22;8478;49.208;8.806;2023-02-15T06:43:21;8.20;99.90
2050;DHT22;8478;49.208;8.806;2023-02-15T06:45:46;8.20;99.90
2050;DHT22;8478;49.208;8.806;2023-02-15T06:48:12;8.20;99.90
2050;DHT22;8478;49.208;8.806;2023-02-15T06:50:38;8.20;99.90
2050;DHT22;8478;49.208;8.806;2023-02-15T06:53:03;8.20;99.90
2050;DHT22;8478;49.208;8.806;2023-02-15T06:55:29;8.20;99.90
2050;DHT22;8478;49.208;8.806;2023-02-15T06:57:55;8.20;99.90
2050;DHT22;8478;49.208;8.806;2023-02-15T07:00:21;8.20;99.90
2050;DHT22;8478;49.208;8.806;2023-02-15T07:02:53;8.20;99.90
2050;DHT22;8478;49.208;8.806;2023-02-15T07:05:21;8.20;99.90
2050;DHT22;8478;49.208;8.806;2023-02-15T07:07:46;8.20;99.90
2050;DHT22;8478;49.208;8.806;2023-02-15T07:10:12;8.20;99.90
2050;DHT22;8478;49.208;8.806;2023-02-15T07:12:38;8.20;99.90
2050;DHT22;8478;49.208;8.806;2023-02-15T07:15:17;8.20;99.90
2050;DHT22;8478;49.208;8.806;2023-02-15T07:17:44;8.20;99.90
2050;DHT22;8478;49.208;8.806;2023-02-15T07:20:20;8.20;99.90
2050;DHT22;8478;49.208;8.806;2023-02-15T07:22:47;8.20;99.90
2050;DHT22;8478;49.208;8.806;2023-02-15T07:25:13;8.20;99.90
2050;DHT22;8478;49.208;8.806;2023-02-15T07:27:39;8.20;99.90
2050;DHT22;8478;49.208;8.806;2023-02-15T07:30:07;8.20;99.90
2050;DHT22;8478;49.208;8.806;2023-02-15T07:32:33;8.20;99.90
2050;DHT22;8478;49.208;8.806;2023-02-15T07:34:59;8.10;99.90
2050;DHT22;8478;49.208;8.806;2023-02-15T07:37:25;8.10;99.90
2050;DHT22;8478;49.208;8.806;2023-02-15T07:39:51;8.20;99.90
2050;DHT22;8478;49.208;8.806;2023-02-15T07:42:17;8.20;99.90
2050;DHT22;8478;49.208;8.806;2023-02-15T07:44:45;8.20;99.90
2050;DHT22;8478;49.208;8.806;2023-02-15T07:47:10;8.20;99.90
2050;DHT22;8478;49.208;8.806;2023-02-15T07:49:37;8.10;99.90
2050;DHT22;8478;49.208;8.806;2023-02-15T07:52:03;8.10;99.90
2050;DHT22;8478;49.208;8.806;2023-02-15T07:54:29;8.20;99.90
2050;DHT22;8478;49.208;8.806;2023-02-15T07:56:55;8.20;99.90
2050;DHT22;8478;49.208;8.806;2023-02-15T07:59:21;8.10;99.90
2050;DHT22;8478;49.208;8.806;2023-02-15T08:01:47;8.20;99.90
2050;DHT22;8478;49.208;8.806;2023-02-15T08:04:13;8.10;99.90
2050;DHT22;8478;49.208;8.806;2023-02-15T08:06:38;8.20;99.90
2050;DHT22;8478;49.208;8.806;2023-02-15T08:09:06;8.20;99.90
2050;DHT22;8478;49.208;8.806;2023-02-15T08:11:36;8.10;99.90
2050;DHT22;8478;49.208;8.806;2023-02-15T08:14:08;8.10;99.90
2050;DHT22;8478;49.208;8.806;2023-02-15T08:19:09;8.10;99.90
2050;DHT22;8478;49.208;8.806;2023-02-15T08:21:38;8.10;99.90
2050;DHT22;8478;49.208;8.806;2023-02-15T08:24:05;8.10;99.90
2050;DHT22;8478;49.208;8.806;2023-02-15T08:26:32;8.10;99.90
2050;DHT22;8478;49.208;8.806;2023-02-15T08:28:58;8.10;99.90
2050;DHT22;8478;49.208;8.806;2023-02-15T08:31:24;8.20;99.90
2050;DHT22;8478;49.208;8.806;2023-02-15T08:33:52;8.10;99.90
2050;DHT22;8478;49.208;8.806;2023-02-15T08:36:20;8.10;99.90
2050;DHT22;8478;49.208;8.806;2023-02-15T08:38:47;8.10;99.90
2050;DHT22;8478;49.208;8.806;2023-02-15T08:41:19;8.10;99.90
2050;DHT22;8478;49.208;8.806;2023-02-15T08:43:47;8.10;99.90
2050;DHT22;8478;49.208;8.806;2023-02-15T08:46:15;8.10;99.90
2050;DHT22;8478;49.208;8.806;2023-02-15T08:48:41;8.10;99.90
2050;DHT22;8478;49.208;8.806;2023-02-15T08:51:15;8.10;99.90
2050;DHT22;8478;49.208;8.806;2023-02-15T08:53:43;8.10;99.90
2050;DHT22;8478;49.208;8.806;2023-02-15T08:56:10;8.10;99.90
2050;DHT22;8478;49.208;8.806;2023-02-15T08:58:37;8.10;99.90
2050;DHT22;8478;49.208;8.806;2023-02-15T09:01:12;8.10;99.90
2050;DHT22;8478;49.208;8.806;2023-02-15T09:03:39;8.10;99.90
2050;DHT22;8478;49.208;8.806;2023-02-15T09:06:05;8.10;99.90
2050;DHT22;8478;49.208;8.806;2023-02-15T09:08:31;8.10;99.90
2050;DHT22;8478;49.208;8.806;2023-02-15T09:11:10;8.10;99.90
2050;DHT22;8478;49.208;8.806;2023-02-15T09:13:36;8.10;99.90
2050;DHT22;8478;49.208;8.806;2023-02-15T09:16:03;8.10;99.90
2050;DHT22;8478;49.208;8.806;2023-02-15T09:18:32;8.10;99.90
2050;DHT22;8478;49.208;8.806;2023-02-15T09:23:33;8.10;99.90
2050;DHT22;8478;49.208;8.806;2023-02-15T09:26:02;8.10;99.90
2050;DHT22;8478;49.208;8.806;2023-02-15T09:28:28;8.10;99.90
2050;DHT22;8478;49.208;8.806;2023-02-15T09:30:54;8.10;99.90
2050;DHT22;8478;49.208;8.806;2023-02-15T09:33:21;8.10;99.90
2050;DHT22;8478;49.208;8.806;2023-02-15T09:35:47;8.10;99.90
2050;DHT22;8478;49.208;8.806;2023-02-15T09:38:13;8.10;99.90
2050;DHT22;8478;49.208;8.806;2023-02-15T09:40:49;8.10;99.90
2050;DHT22;8478;49.208;8.806;2023-02-15T09:48:39;8.10;99.90
2050;DHT22;8478;49.208;8.806;2023-02-15T09:56:51;8.10;99.90
2050;DHT22;8478;49.208;8.806;2023-02-15T10:17:02;8.10;99.90
2050;DHT22;8478;49.208;8.806;2023-02-15T10:19:40;8.10;99.90
2050;DHT22;8478;49.208;8.806;2023-02-15T10:22:19;8.10;99.90
2050;DHT22;8478;49.208;8.806;2023-02-15T10:27:22;8.10;99.90
2050;DHT22;8478;49.208;8.806;2023-02-15T10:30:02;8.10;99.90
2050;DHT22;8478;49.208;8.806;2023-02-15T10:32:48;8.10;99.90
2050;DHT22;8478;49.208;8.806;2023-02-15T10:38:18;8.00;99.90
2050;DHT22;8478;49.208;8.806;2023-02-15T10:43:08;8.10;99.90
2050;DHT22;8478;49.208;8.806;2023-02-15T10:50:56;8.10;99.90
2050;DHT22;8478;49.208;8.806;2023-02-15T10:56:53;8.10;99.90
2050;DHT22;8478;49.208;8.806;2023-02-15T11:06:53;8.10;99.90
2050;DHT22;8478;49.208;8.806;2023-02-15T11:09:21;8.10;99.90
2050;DHT22;8478;49.208;8.806;2023-02-15T11:11:52;8.10;99.90
2050;DHT22;8478;49.208;8.806;2023-02-15T11:14:44;8.10;99.90
2050;DHT22;8478;49.208;8.806;2023-02-15T11:17:14;8.10;99.90
2050;DHT22;8478;49.208;8.806;2023-02-15T11:20:16;8.10;99.90
2050;DHT22;8478;49.208;8.806;2023-02-15T11:22:47;8.10;99.90
2050;DHT22;8478;49.208;8.806;2023-02-15T11:27:48;8.10;99.90
2050;DHT22;8478;49.208;8.806;2023-02-15T11:30:20;8.10;99.90
2050;DHT22;8478;49.208;8.806;2023-02-15T11:32:49;8.10;99.90
2050;DHT22;8478;49.208;8.806;2023-02-15T11:35:32;8.10;99.90
2050;DHT22;8478;49.208;8.806;2023-02-15T11:38:21;8.10;99.90
2050;DHT22;8478;49.208;8.806;2023-02-15T11:40:51;8.10;99.90
2050;DHT22;8478;49.208;8.806;2023-02-15T11:45:54;8.10;99.90
2050;DHT22;8478;49.208;8.806;2023-02-15T11:48:20;8.00;99.90
2050;DHT22;8478;49.208;8.806;2023-02-15T11:50:46;8.10;99.90
2050;DHT22;8478;49.208;8.806;2023-02-15T11:53:15;8.10;99.90
2050;DHT22;8478;49.208;8.806;2023-02-15T11:55:46;8.10;99.90
2050;DHT22;8478;49.208;8.806;2023-02-15T12:00:46;8.10;99.90
2050;DHT22;8478;49.208;8.806;2023-02-15T12:03:49;8.10;99.90
2050;DHT22;8478;49.208;8.806;2023-02-15T12:06:27;8.10;99.90
2050;DHT22;8478;49.208;8.806;2023-02-15T12:11:40;8.10;99.90
2050;DHT22;8478;49.208;8.806;2023-02-15T12:14:11;8.10;99.90
2050;DHT22;8478;49.208;8.806;2023-02-15T12:16:48;8.10;99.90
2050;DHT22;8478;49.208;8.806;2023-02-15T12:21:51;8.10;99.90
2050;DHT22;8478;49.208;8.806;2023-02-15T12:24:26;8.10;99.90
2050;DHT22;8478;49.208;8.806;2023-02-15T12:27:04;8.10;99.90
2050;DHT22;8478;49.208;8.806;2023-02-15T12:29:39;8.10;99.90
2050;DHT22;8478;49.208;8.806;2023-02-15T12:32:08;8.10;99.90
2050;DHT22;8478;49.208;8.806;2023-02-15T12:34:38;8.10;99.90
2050;DHT22;8478;49.208;8.806;2023-02-15T12:37:22;8.10;99.90
2050;DHT22;8478;49.208;8.806;2023-02-15T12:39:54;8.10;99.90
2050;DHT22;8478;49.208;8.806;2023-02-15T12:42:20;8.10;99.90
2050;DHT22;8478;49.208;8.806;2023-02-15T12:45:19;8.10;99.90
2050;DHT22;8478;49.208;8.806;2023-02-15T12:47:45;8.10;99.90
2050;DHT22;8478;49.208;8.806;2023-02-15T12:50:23;8.10;99.90
2050;DHT22;8478;49.208;8.806;2023-02-15T12:53:14;8.10;99.90
2050;DHT22;8478;49.208;8.806;2023-02-15T12:55:50;8.10;99.90
2050;DHT22;8478;49.208;8.806;2023-02-15T12:58:20;8.20;99.90
2050;DHT22;8478;49.208;8.806;2023-02-15T13:00:47;8.20;99.90
2050;DHT22;8478;49.208;8.806;2023-02-15T13:03:18;8.10;99.90
2050;DHT22;8478;49.208;8.806;2023-02-15T13:05:46;8.10;99.90
2050;DHT22;8478;49.208;8.806;2023-02-15T13:08:25;8.10;99.90
2050;DHT22;8478;49.208;8.806;2023-02-15T13:11:09;8.10;99.90
2050;DHT22;8478;49.208;8.806;2023-02-15T13:13:53;8.10;99.90
2050;DHT22;8478;49.208;8.806;2023-02-15T13:16:29;8.20;99.90
2050;DHT22;8478;49.208;8.806;2023-02-15T13:18:57;8.10;99.90
2050;DHT22;8478;49.208;8.806;2023-02-15T13:21:31;8.10;99.90
2050;DHT22;8478;49.208;8.806;2023-02-15T13:24:24;8.10;99.90
2050;DHT22;8478;49.208;8.806;2023-02-15T13:26:52;8.20;99.90
2050;DHT22;8478;49.208;8.806;2023-02-15T13:29:24;8.10;99.90
2050;DHT22;8478;49.208;8.806;2023-02-15T13:31:51;8.20;99.90
2050;DHT22;8478;49.208;8.806;2023-02-15T13:34:30;8.10;99.90
2050;DHT22;8478;49.208;8.806;2023-02-15T13:40:07;8.10;99.90
2050;DHT22;8478;49.208;8.806;2023-02-15T13:48:01;8.10;99.90
2050;DHT22;8478;49.208;8.806;2023-02-15T13:51:19;8.20;99.90
2050;DHT22;8478;49.208;8.806;2023-02-15T14:01:44;8.20;99.90
2050;DHT22;8478;49.208;8.806;2023-02-15T14:10:18;8.20;99.90
2050;DHT22;8478;49.208;8.806;2023-02-15T14:15:50;8.20;99.90
2050;DHT22;8478;49.208;8.806;2023-02-15T14:26:50;8.20;99.90
2050;DHT22;8478;49.208;8.806;2023-02-15T14:32:11;8.20;99.90
2050;DHT22;8478;49.208;8.806;2023-02-15T14:37:12;8.20;99.90
2050;DHT22;8478;49.208;8.806;2023-02-15T14:40:00;8.20;99.90
2050;DHT22;8478;49.208;8.806;2023-02-15T14:43:00;8.20;99.90
2050;DHT22;8478;49.208;8.806;2023-02-15T14:45:37;8.30;99.90
2050;DHT22;8478;49.208;8.806;2023-02-15T14:48:25;8.20;99.90
2050;DHT22;8478;49.208;8.806;2023-02-15T14:50:55;8.30;99.90
2050;DHT22;8478;49.208;8.806;2023-02-15T14:58:37;8.30;99.90
2050;DHT22;8478;49.208;8.806;2023-02-15T15:01:10;8.30;99.90
2050;DHT22;8478;49.208;8.806;2023-02-15T15:03:42;8.20;99.90
2050;DHT22;8478;49.208;8.806;2023-02-15T15:06:24;8.30;99.90
2050;DHT22;8478;49.208;8.806;2023-02-15T15:08:53;8.30;99.90
2050;DHT22;8478;49.208;8.806;2023-02-15T15:13:59;8.30;99.90
2050;DHT22;8478;49.208;8.806;2023-02-15T15:19:04;8.30;99.90
2050;DHT22;8478;49.208;8.806;2023-02-15T15:45:00;8.30;99.90
2050;DHT22;8478;49.208;8.806;2023-02-15T15:47:33;8.30;99.90
2050;DHT22;8478;49.208;8.806;2023-02-15T15:50:12;8.30;99.90
2050;DHT22;8478;49.208;8.806;2023-02-15T15:52:41;8.30;99.90
2050;DHT22;8478;49.208;8.806;2023-02-15T15:55:16;8.40;99.90
2050;DHT22;8478;49.208;8.806;2023-02-15T15:57:44;8.30;99.90
2050;DHT22;8478;49.208;8.806;2023-02-15T16:02:54;8.30;99.90
2050;DHT22;8478;49.208;8.806;2023-02-15T16:05:23;8.30;99.90
2050;DHT22;8478;49.208;8.806;2023-02-15T16:07:49;8.30;99.90
2050;DHT22;8478;49.208;8.806;2023-02-15T16:10:24;8.30;99.90
2050;DHT22;8478;49.208;8.806;2023-02-15T16:12:50;8.30;99.90
2050;DHT22;8478;49.208;8.806;2023-02-15T16:15:25;8.30;99.90
2050;DHT22;8478;49.208;8.806;2023-02-15T16:17:57;8.30;99.90
2050;DHT22;8478;49.208;8.806;2023-02-15T16:20:29;8.30;99.90
2050;DHT22;8478;49.208;8.806;2023-02-15T16:25:40;8.40;99.90
2050;DHT22;8478;49.208;8.806;2023-02-15T16:28:12;8.40;99.90
2050;DHT22;8478;49.208;8.806;2023-02-15T16:30:38;8.30;99.90
2050;DHT22;8478;49.208;8.806;2023-02-15T16:33:09;8.40;99.90
2050;DHT22;8478;49.208;8.806;2023-02-15T16:35:40;8.30;99.90
2050;DHT22;8478;49.208;8.806;2023-02-15T16:38:09;8.40;99.90
2050;DHT22;8478;49.208;8.806;2023-02-15T16:40:45;8.40;99.90
2050;DHT22;8478;49.208;8.806;2023-02-15T16:43:17;8.40;99.90
2050;DHT22;8478;49.208;8.806;2023-02-15T16:45:44;8.40;99.90
2050;DHT22;8478;49.208;8.806;2023-02-15T16:48:20;8.40;99.90
2050;DHT22;8478;49.208;8.806;2023-02-15T16:50:53;8.40;99.90
2050;DHT22;8478;49.208;8.806;2023-02-15T16:53:24;8.40;99.90
2050;DHT22;8478;49.208;8.806;2023-02-15T16:55:57;8.40;99.90
2050;DHT22;8478;49.208;8.806;2023-02-15T16:58:31;8.40;99.90
2050;DHT22;8478;49.208;8.806;2023-02-15T17:01:02;8.40;99.90
2050;DHT22;8478;49.208;8.806;2023-02-15T17:03:28;8.40;99.90
2050;DHT22;8478;49.208;8.806;2023-02-15T17:05:59;8.40;99.90
2050;DHT22;8478;49.208;8.806;2023-02-15T17:08:31;8.40;99.90
2050;DHT22;8478;49.208;8.806;2023-02-15T17:11:19;8.40;99.90
2050;DHT22;8478;49.208;8.806;2023-02-15T17:16:35;8.40;99.90
2050;DHT22;8478;49.208;8.806;2023-02-15T17:19:12;8.40;99.90
2050;DHT22;8478;49.208;8.806;2023-02-15T17:21:50;8.40;99.90
2050;DHT22;8478;49.208;8.806;2023-02-15T17:24:20;8.40;99.90
2050;DHT22;8478;49.208;8.806;2023-02-15T17:26:55;8.40;99.90
2050;DHT22;8478;49.208;8.806;2023-02-15T17:29:38;8.40;99.90
2050;DHT22;8478;49.208;8.806;2023-02-15T17:32:11;8.40;99.90
2050;DHT22;8478;49.208;8.806;2023-02-15T17:42:41;8.30;99.90
2050;DHT22;8478;49.208;8.806;2023-02-15T17:45:07;8.30;99.90
2050;DHT22;8478;49.208;8.806;2023-02-15T17:47:33;8.30;99.90
2050;DHT22;8478;49.208;8.806;2023-02-15T17:50:02;8.40;99.90
2050;DHT22;8478;49.208;8.806;2023-02-15T17:52:29;8.30;99.90
2050;DHT22;8478;49.208;8.806;2023-02-15T17:54:55;7.90;99.90
2050;DHT22;8478;49.208;8.806;2023-02-15T17:57:39;7.80;99.90
2050;DHT22;8478;49.208;8.806;2023-02-15T18:00:07;8.30;99.90
2050;DHT22;8478;49.208;8.806;2023-02-15T18:02:51;8.50;99.90
2050;DHT22;8478;49.208;8.806;2023-02-15T18:05:36;8.10;99.90
2050;DHT22;8478;49.208;8.806;2023-02-15T18:08:26;7.80;99.90
2050;DHT22;8478;49.208;8.806;2023-02-15T18:11:10;7.70;99.90
2050;DHT22;8478;49.208;8.806;2023-02-15T18:13:55;7.60;99.90
2050;DHT22;8478;49.208;8.806;2023-02-15T18:16:26;7.50;99.90
2050;DHT22;8478;49.208;8.806;2023-02-15T18:18:54;7.50;99.90
2050;DHT22;8478;49.208;8.806;2023-02-15T18:21:20;7.50;99.90
2050;DHT22;8478;49.208;8.806;2023-02-15T18:23:46;7.30;99.90
2050;DHT22;8478;49.208;8.806;2023-02-15T18:26:20;7.30;99.90
2050;DHT22;8478;49.208;8.806;2023-02-15T18:28:46;7.60;99.90
2050;DHT22;8478;49.208;8.806;2023-02-15T18:31:13;7.80;99.90
2050;DHT22;8478;49.208;8.806;2023-02-15T18:36:15;7.90;99.90
2050;DHT22;8478;49.208;8.806;2023-02-15T18:38:41;7.90;99.90
2050;DHT22;8478;49.208;8.806;2023-02-15T18:41:14;8.00;99.90
2050;DHT22;8478;49.208;8.806;2023-02-15T18:43:40;8.00;99.90
2050;DHT22;8478;49.208;8.806;2023-02-15T18:46:06;8.50;99.90
2050;DHT22;8478;49.208;8.806;2023-02-15T18:48:31;8.80;99.90
2050;DHT22;8478;49.208;8.806;2023-02-15T18:50:57;8.90;99.90
2050;DHT22;8478;49.208;8.806;2023-02-15T18:53:23;8.90;99.90
2050;DHT22;8478;49.208;8.806;2023-02-15T18:55:48;8.90;99.90
2050;DHT22;8478;49.208;8.806;2023-02-15T18:58:17;9.00;99.90
2050;DHT22;8478;49.208;8.806;2023-02-15T19:00:42;8.90;99.90
2050;DHT22;8478;49.208;8.806;2023-02-15T19:03:12;9.30;99.90
2050;DHT22;8478;49.208;8.806;2023-02-15T19:05:43;9.70;99.90
2050;DHT22;8478;49.208;8.806;2023-02-15T19:08:21;9.90;99.90
2050;DHT22;8478;49.208;8.806;2023-02-15T19:10:50;10.00;99.90
2050;DHT22;8478;49.208;8.806;2023-02-15T19:13:16;10.20;99.90
2050;DHT22;8478;49.208;8.806;2023-02-15T19:15:42;10.20;99.90
2050;DHT22;8478;49.208;8.806;2023-02-15T19:18:08;10.20;99.90
2050;DHT22;8478;49.208;8.806;2023-02-15T19:20:39;10.30;99.90
2050;DHT22;8478;49.208;8.806;2023-02-15T19:23:16;10.40;99.90
2050;DHT22;8478;49.208;8.806;2023-02-15T19:25:44;10.40;99.90
2050;DHT22;8478;49.208;8.806;2023-02-15T19:28:24;10.10;99.90
2050;DHT22;8478;49.208;8.806;2023-02-15T19:30:53;9.20;99.90
2050;DHT22;8478;49.208;8.806;2023-02-15T19:33:20;8.30;99.90
2050;DHT22;8478;49.208;8.806;2023-02-15T19:35:48;8.00;99.90
2050;DHT22;8478;49.208;8.806;2023-02-15T19:38:23;8.30;99.90
2050;DHT22;8478;49.208;8.806;2023-02-15T19:40:50;8.40;99.90
2050;DHT22;8478;49.208;8.806;2023-02-15T19:43:18;8.50;99.90
2050;DHT22;8478;49.208;8.806;2023-02-15T19:45:45;8.50;99.90